sensor_id;sensor_type;location;lat;lon;timestamp;temperature;humidity
42085;DHT22;27746;52.228;20.890;2023-10-08T04:56:37;9.00;99.90
42085;DHT22;27746;52.228;20.890;2023-10-08T09:10:29;14.50;69.70
42085;DHT22;27746;52.228;20.890;2023-10-08T09:15:33;15.30;67.90
42085;DHT22;27746;52.228;20.890;2023-10-08T09:18:01;17.40;63.50
42085;DHT22;27746;52.228;20.890;2023-10-08T09:20:28;18.50;60.30
42085;DHT22;27746;52.228;20.890;2023-10-08T09:23:06;20.00;58.30
42085;DHT22;27746;52.228;20.890;2023-10-08T09:25:34;21.40;54.80
42085;DHT22;27746;52.228;20.890;2023-10-08T09:28:00;22.90;53.90
42085;DHT22;27746;52.228;20.890;2023-10-08T09:30:30;24.50;51.80
42085;DHT22;27746;52.228;20.890;2023-10-08T09:35:25;25.70;48.60
42085;DHT22;27746;52.228;20.890;2023-10-08T09:37:53;27.70;46.60
42085;DHT22;27746;52.228;20.890;2023-10-08T09:40:21;28.80;46.20
42085;DHT22;27746;52.228;20.890;2023-10-08T09:42:48;29.50;43.20
42085;DHT22;27746;52.228;20.890;2023-10-08T09:45:15;29.60;40.90
42085;DHT22;27746;52.228;20.890;2023-10-08T09:47:48;29.70;41.40
42085;DHT22;27746;52.228;20.890;2023-10-08T09:50:20;30.50;40.90
42085;DHT22;27746;52.228;20.890;2023-10-08T09:52:55;31.20;39.50
42085;DHT22;27746;52.228;20.890;2023-10-08T09:55:27;31.40;39.30
42085;DHT22;27746;52.228;20.890;2023-10-08T09:57:54;31.70;38.80
42085;DHT22;27746;52.228;20.890;2023-10-08T10:00:23;32.30;38.60
42085;DHT22;27746;52.228;20.890;2023-10-08T10:02:58;32.30;37.70
42085;DHT22;27746;52.228;20.890;2023-10-08T10:05:29;32.50;38.30
42085;DHT22;27746;52.228;20.890;2023-10-08T10:07:57;33.20;37.70
42085;DHT22;27746;52.228;20.890;2023-10-08T10:10:28;33.80;37.00
42085;DHT22;27746;52.228;20.890;2023-10-08T10:12:58;34.40;36.90
42085;DHT22;27746;52.228;20.890;2023-10-08T10:15:26;34.90;35.70
42085;DHT22;27746;52.228;20.890;2023-10-08T10:18:00;35.40;35.10
42085;DHT22;27746;52.228;20.890;2023-10-08T10:20:38;34.90;34.00
42085;DHT22;27746;52.228;20.890;2023-10-08T10:23:34;34.50;34.30
42085;DHT22;27746;52.228;20.890;2023-10-08T10:26:03;34.20;34.50
42085;DHT22;27746;52.228;20.890;2023-10-08T10:28:30;34.60;34.10
42085;DHT22;27746;52.228;20.890;2023-10-08T10:30:58;35.00;35.00
42085;DHT22;27746;52.228;20.890;2023-10-08T10:33:31;35.20;33.70
42085;DHT22;27746;52.228;20.890;2023-10-08T10:36:00;35.60;33.40
42085;DHT22;27746;52.228;20.890;2023-10-08T10:38:31;35.70;33.40
42085;DHT22;27746;52.228;20.890;2023-10-08T10:40:59;35.80;33.00
42085;DHT22;27746;52.228;20.890;2023-10-08T10:43:34;36.20;33.40
42085;DHT22;27746;52.228;20.890;2023-10-08T10:46:02;36.40;33.30
42085;DHT22;27746;52.228;20.890;2023-10-08T10:48:46;36.40;33.00
42085;DHT22;27746;52.228;20.890;2023-10-08T10:51:28;37.10;33.30
42085;DHT22;27746;52.228;20.890;2023-10-08T10:53:57;37.50;32.80
42085;DHT22;27746;52.228;20.890;2023-10-08T10:56:33;37.40;32.50
42085;DHT22;27746;52.228;20.890;2023-10-08T10:59:06;37.20;31.90
42085;DHT22;27746;52.228;20.890;2023-10-08T11:01:41;36.80;31.40
42085;DHT22;27746;52.228;20.890;2023-10-08T11:04:13;36.80;32.10
42085;DHT22;27746;52.228;20.890;2023-10-08T11:06:46;37.00;31.90
42085;DHT22;27746;52.228;20.890;2023-10-08T11:09:13;36.90;32.70
42085;DHT22;27746;52.228;20.890;2023-10-08T11:11:44;36.90;31.40
42085;DHT22;27746;52.228;20.890;2023-10-08T11:14:12;35.90;30.00
42085;DHT22;27746;52.228;20.890;2023-10-08T11:16:44;35.40;30.00
42085;DHT22;27746;52.228;20.890;2023-10-08T11:19:12;35.40;30.90
42085;DHT22;27746;52.228;20.890;2023-10-08T11:21:50;35.40;30.60
42085;DHT22;27746;52.228;20.890;2023-10-08T11:24:29;35.70;31.60
42085;DHT22;27746;52.228;20.890;2023-10-08T11:27:00;36.40;32.10
42085;DHT22;27746;52.228;20.890;2023-10-08T11:29:41;36.20;31.10
42085;DHT22;27746;52.228;20.890;2023-10-08T11:32:09;35.90;31.00
42085;DHT22;27746;52.228;20.890;2023-10-08T11:34:40;35.40;30.00
42085;DHT22;27746;52.228;20.890;2023-10-08T11:37:06;34.70;30.40
42085;DHT22;27746;52.228;20.890;2023-10-08T11:39:46;34.70;30.40
42085;DHT22;27746;52.228;20.890;2023-10-08T11:42:13;34.60;31.10
42085;DHT22;27746;52.228;20.890;2023-10-08T11:44:57;35.10;30.70
42085;DHT22;27746;52.228;20.890;2023-10-08T11:47:24;34.70;30.10
42085;DHT22;27746;52.228;20.890;2023-10-08T11:49:58;33.80;30.00
42085;DHT22;27746;52.228;20.890;2023-10-08T11:52:35;33.30;30.10
42085;DHT22;27746;52.228;20.890;2023-10-08T11:55:07;34.00;30.70
42085;DHT22;27746;52.228;20.890;2023-10-08T11:57:34;34.20;30.10
42085;DHT22;27746;52.228;20.890;2023-10-08T12:00:01;33.70;29.90
42085;DHT22;27746;52.228;20.890;2023-10-08T12:02:44;31.80;30.00
42085;DHT22;27746;52.228;20.890;2023-10-08T12:05:13;31.20;31.00
42085;DHT22;27746;52.228;20.890;2023-10-08T12:07:46;31.50;31.20
42085;DHT22;27746;52.228;20.890;2023-10-08T12:10:14;31.90;30.90
42085;DHT22;27746;52.228;20.890;2023-10-08T12:12:42;32.00;30.80
42085;DHT22;27746;52.228;20.890;2023-10-08T12:15:11;33.00;31.20
42085;DHT22;27746;52.228;20.890;2023-10-08T12:17:46;33.40;30.40
42085;DHT22;27746;52.228;20.890;2023-10-08T12:20:35;32.20;30.50
42085;DHT22;27746;52.228;20.890;2023-10-08T12:23:02;32.40;30.70
42085;DHT22;27746;52.228;20.890;2023-10-08T12:25:30;32.30;30.70
42085;DHT22;27746;52.228;20.890;2023-10-08T12:27:58;31.60;30.50
42085;DHT22;27746;52.228;20.890;2023-10-08T12:30:28;29.80;30.70
42085;DHT22;27746;52.228;20.890;2023-10-08T12:32:57;28.20;30.80
42085;DHT22;27746;52.228;20.890;2023-10-08T12:35:25;28.60;31.40
42085;DHT22;27746;52.228;20.890;2023-10-08T12:37:53;28.60;31.30
42085;DHT22;27746;52.228;20.890;2023-10-08T12:40:22;27.50;31.20
42085;DHT22;27746;52.228;20.890;2023-10-08T12:43:07;27.40;31.70
42085;DHT22;27746;52.228;20.890;2023-10-08T12:45:35;25.90;32.80
42085;DHT22;27746;52.228;20.890;2023-10-08T12:48:03;25.10;33.90
42085;DHT22;27746;52.228;20.890;2023-10-08T12:50:33;25.80;34.50
42085;DHT22;27746;52.228;20.890;2023-10-08T12:53:09;25.90;34.30
42085;DHT22;27746;52.228;20.890;2023-10-08T12:55:37;26.60;34.40
42085;DHT22;27746;52.228;20.890;2023-10-08T12:58:05;27.10;34.00
42085;DHT22;27746;52.228;20.890;2023-10-08T13:00:35;26.50;33.40
42085;DHT22;27746;52.228;20.890;2023-10-08T13:03:04;26.40;34.10
42085;DHT22;27746;52.228;20.890;2023-10-08T13:05:40;27.10;34.20
42085;DHT22;27746;52.228;20.890;2023-10-08T13:08:11;27.40;33.60
42085;DHT22;27746;52.228;20.890;2023-10-08T13:10:39;27.90;33.30
42085;DHT22;27746;52.228;20.890;2023-10-08T13:13:09;28.10;32.80
42085;DHT22;27746;52.228;20.890;2023-10-08T13:15:37;28.30;32.70
42085;DHT22;27746;52.228;20.890;2023-10-08T13:18:05;28.10;32.70
42085;DHT22;27746;52.228;20.890;2023-10-08T13:20:32;28.00;32.60
42085;DHT22;27746;52.228;20.890;2023-10-08T13:23:00;27.50;32.50
42085;DHT22;27746;52.228;20.890;2023-10-08T13:25:28;28.00;32.90
42085;DHT22;27746;52.228;20.890;2023-10-08T13:27:58;28.30;32.90
42085;DHT22;27746;52.228;20.890;2023-10-08T13:30:26;28.60;32.80
42085;DHT22;27746;52.228;20.890;2023-10-08T13:32:53;28.30;32.50
42085;DHT22;27746;52.228;20.890;2023-10-08T13:35:20;28.10;32.90
42085;DHT22;27746;52.228;20.890;2023-10-08T13:37:47;28.30;32.90
42085;DHT22;27746;52.228;20.890;2023-10-08T13:40:14;28.20;33.00
42085;DHT22;27746;52.228;20.890;2023-10-08T13:42:42;28.30;32.90
42085;DHT22;27746;52.228;20.890;2023-10-08T13:45:10;28.30;32.70
42085;DHT22;27746;52.228;20.890;2023-10-08T13:47:51;28.40;32.90
42085;DHT22;27746;52.228;20.890;2023-10-08T13:50:18;28.00;33.00
42085;DHT22;27746;52.228;20.890;2023-10-08T13:52:47;27.30;33.10
42085;DHT22;27746;52.228;20.890;2023-10-08T13:55:14;26.60;33.50
42085;DHT22;27746;52.228;20.890;2023-10-08T13:57:46;24.50;34.20
42085;DHT22;27746;52.228;20.890;2023-10-08T14:00:14;23.20;35.70
42085;DHT22;27746;52.228;20.890;2023-10-08T14:02:42;22.00;36.80
42085;DHT22;27746;52.228;20.890;2023-10-08T14:05:10;21.10;37.60
42085;DHT22;27746;52.228;20.890;2023-10-08T14:07:41;21.10;38.30
42085;DHT22;27746;52.228;20.890;2023-10-08T14:10:10;20.40;39.70
42085;DHT22;27746;52.228;20.890;2023-10-08T14:12:46;18.90;39.50
42085;DHT22;27746;52.228;20.890;2023-10-08T14:15:15;18.10;40.10
42085;DHT22;27746;52.228;20.890;2023-10-08T14:17:43;17.60;39.90
42085;DHT22;27746;52.228;20.890;2023-10-08T14:22:47;17.10;40.30
42085;DHT22;27746;52.228;20.890;2023-10-08T15:15:41;12.70;49.20
42085;DHT22;27746;52.228;20.890;2023-10-08T15:18:09;12.50;49.30
42085;DHT22;27746;52.228;20.890;2023-10-08T15:20:37;12.50;49.50
42085;DHT22;27746;52.228;20.890;2023-10-08T15:25:37;12.20;49.90
42085;DHT22;27746;52.228;20.890;2023-10-08T15:28:05;12.30;50.20
42085;DHT22;27746;52.228;20.890;2023-10-08T15:30:33;12.20;50.80
42085;DHT22;27746;52.228;20.890;2023-10-08T15:52:43;11.40;51.80
42085;DHT22;27746;52.228;20.890;2023-10-08T15:55:12;11.30;52.20
42085;DHT22;27746;52.228;20.890;2023-10-08T15:57:39;11.20;52.30
42085;DHT22;27746;52.228;20.890;2023-10-08T16:00:07;11.10;52.50
42085;DHT22;27746;52.228;20.890;2023-10-08T16:02:34;11.10;52.90
42085;DHT22;27746;52.228;20.890;2023-10-08T16:09:57;11.00;53.60
42085;DHT22;27746;52.228;20.890;2023-10-08T16:12:25;10.90;54.10
42085;DHT22;27746;52.228;20.890;2023-10-08T16:51:47;10.00;57.10
42085;DHT22;27746;52.228;20.890;2023-10-08T16:54:15;10.00;57.40
42085;DHT22;27746;52.228;20.890;2023-10-08T16:59:11;9.90;57.80
42085;DHT22;27746;52.228;20.890;2023-10-08T17:01:41;11.50;58.80
42085;DHT22;27746;52.228;20.890;2023-10-08T17:04:08;9.70;58.20
42085;DHT22;27746;52.228;20.890;2023-10-08T17:06:37;9.70;58.50
42085;DHT22;27746;52.228;20.890;2023-10-08T17:11:39;9.70;58.80
42085;DHT22;27746;52.228;20.890;2023-10-08T17:14:11;9.60;59.20
42085;DHT22;27746;52.228;20.890;2023-10-08T17:19:08;9.50;59.70
42085;DHT22;27746;52.228;20.890;2023-10-08T17:26:32;9.40;59.90
42085;DHT22;27746;52.228;20.890;2023-10-08T17:31:27;11.50;61.60
42085;DHT22;27746;52.228;20.890;2023-10-08T17:33:54;9.20;60.40
42085;DHT22;27746;52.228;20.890;2023-10-08T17:36:24;9.20;60.30
42085;DHT22;27746;52.228;20.890;2023-10-08T17:38:52;9.20;60.70
42085;DHT22;27746;52.228;20.890;2023-10-08T17:48:41;9.10;61.40
42085;DHT22;27746;52.228;20.890;2023-10-08T17:53:37;9.00;61.30
42085;DHT22;27746;52.228;20.890;2023-10-08T17:56:03;8.90;61.60
42085;DHT22;27746;52.228;20.890;2023-10-08T18:01:07;9.00;62.80
42085;DHT22;27746;52.228;20.890;2023-10-08T18:06:04;8.90;63.00
42085;DHT22;27746;52.228;20.890;2023-10-08T18:11:02;8.90;63.40
42085;DHT22;27746;52.228;20.890;2023-10-08T18:13:30;8.90;63.30
42085;DHT22;27746;52.228;20.890;2023-10-08T18:15:58;8.80;63.60
42085;DHT22;27746;52.228;20.890;2023-10-08T18:23:23;8.60;64.20
42085;DHT22;27746;52.228;20.890;2023-10-08T18:25:50;8.70;64.20
42085;DHT22;27746;52.228;20.890;2023-10-08T18:28:19;8.50;64.40
42085;DHT22;27746;52.228;20.890;2023-10-08T18:35:42;8.30;65.50
42085;DHT22;27746;52.228;20.890;2023-10-08T18:45:39;8.20;66.10
42085;DHT22;27746;52.228;20.890;2023-10-08T18:48:07;8.20;66.30
42085;DHT22;27746;52.228;20.890;2023-10-08T18:53:02;8.00;66.60
42085;DHT22;27746;52.228;20.890;2023-10-08T18:57:57;7.80;66.80
42085;DHT22;27746;52.228;20.890;2023-10-08T19:02:53;7.80;67.90
42085;DHT22;27746;52.228;20.890;2023-10-08T19:10:17;7.60;67.80
42085;DHT22;27746;52.228;20.890;2023-10-08T19:12:46;7.60;68.20
42085;DHT22;27746;52.228;20.890;2023-10-08T19:15:13;7.40;68.00
42085;DHT22;27746;52.228;20.890;2023-10-08T19:17:40;7.40;68.70
42085;DHT22;27746;52.228;20.890;2023-10-08T19:20:10;7.50;68.70
42085;DHT22;27746;52.228;20.890;2023-10-08T19:22:37;7.20;69.00
42085;DHT22;27746;52.228;20.890;2023-10-08T19:25:07;7.60;69.50
42085;DHT22;27746;52.228;20.890;2023-10-08T19:27:39;7.50;69.90
42085;DHT22;27746;52.228;20.890;2023-10-08T19:30:07;7.40;69.50
42085;DHT22;27746;52.228;20.890;2023-10-08T19:35:03;7.30;69.50
42085;DHT22;27746;52.228;20.890;2023-10-08T19:37:32;7.30;69.30
42085;DHT22;27746;52.228;20.890;2023-10-08T19:39:59;7.30;70.00
42085;DHT22;27746;52.228;20.890;2023-10-08T19:45:07;7.10;69.80
42085;DHT22;27746;52.228;20.890;2023-10-08T19:47:41;7.40;70.40
42085;DHT22;27746;52.228;20.890;2023-10-08T19:50:09;7.10;70.60
42085;DHT22;27746;52.228;20.890;2023-10-08T19:52:38;7.00;71.30
42085;DHT22;27746;52.228;20.890;2023-10-08T19:55:08;7.00;71.40
42085;DHT22;27746;52.228;20.890;2023-10-08T19:57:36;7.00;71.90
42085;DHT22;27746;52.228;20.890;2023-10-08T20:00:06;6.90;71.90
42085;DHT22;27746;52.228;20.890;2023-10-08T20:02:39;6.90;72.40
42085;DHT22;27746;52.228;20.890;2023-10-08T20:05:08;6.80;72.40
42085;DHT22;27746;52.228;20.890;2023-10-08T20:07:39;6.80;72.70
42085;DHT22;27746;52.228;20.890;2023-10-08T20:10:07;6.80;72.60
42085;DHT22;27746;52.228;20.890;2023-10-08T20:20:06;6.60;73.20
42085;DHT22;27746;52.228;20.890;2023-10-08T20:22:39;6.60;73.40
42085;DHT22;27746;52.228;20.890;2023-10-08T20:30:03;6.50;73.90
42085;DHT22;27746;52.228;20.890;2023-10-08T20:34:58;6.50;74.30
42085;DHT22;27746;52.228;20.890;2023-10-08T20:37:26;6.40;74.30
42085;DHT22;27746;52.228;20.890;2023-10-08T20:42:24;6.30;74.80
42085;DHT22;27746;52.228;20.890;2023-10-08T20:52:15;6.10;75.60
42085;DHT22;27746;52.228;20.890;2023-10-08T20:54:44;6.20;76.20
42085;DHT22;27746;52.228;20.890;2023-10-08T20:57:14;6.20;76.60
42085;DHT22;27746;52.228;20.890;2023-10-08T20:59:41;6.10;76.40
42085;DHT22;27746;52.228;20.890;2023-10-08T21:02:08;6.10;76.80
42085;DHT22;27746;52.228;20.890;2023-10-08T21:04:37;6.20;77.00
42085;DHT22;27746;52.228;20.890;2023-10-08T21:07:03;6.10;76.90
42085;DHT22;27746;52.228;20.890;2023-10-08T21:09:34;6.10;77.30
42085;DHT22;27746;52.228;20.890;2023-10-08T21:12:01;6.10;77.80
42085;DHT22;27746;52.228;20.890;2023-10-08T21:14:29;6.10;78.20
42085;DHT22;27746;52.228;20.890;2023-10-08T21:16:56;6.00;78.40
42085;DHT22;27746;52.228;20.890;2023-10-08T21:19:23;6.40;78.50
42085;DHT22;27746;52.228;20.890;2023-10-08T21:21:52;5.90;78.80
42085;DHT22;27746;52.228;20.890;2023-10-08T21:24:19;6.00;78.90
42085;DHT22;27746;52.228;20.890;2023-10-08T21:26:46;5.80;78.70
42085;DHT22;27746;52.228;20.890;2023-10-08T21:29:13;5.90;79.10
42085;DHT22;27746;52.228;20.890;2023-10-08T21:31:43;5.80;78.90
42085;DHT22;27746;52.228;20.890;2023-10-08T21:34:09;5.70;79.30
42085;DHT22;27746;52.228;20.890;2023-10-08T21:36:36;5.70;79.60
42085;DHT22;27746;52.228;20.890;2023-10-08T21:39:03;5.70;80.00
42085;DHT22;27746;52.228;20.890;2023-10-08T21:41:30;5.50;80.00
42085;DHT22;27746;52.228;20.890;2023-10-08T21:43:57;5.60;80.20
42085;DHT22;27746;52.228;20.890;2023-10-08T21:48:53;5.60;80.50
42085;DHT22;27746;52.228;20.890;2023-10-08T21:51:20;5.50;80.50
42085;DHT22;27746;52.228;20.890;2023-10-08T21:53:49;5.50;80.30
42085;DHT22;27746;52.228;20.890;2023-10-08T21:56:16;5.40;80.70
42085;DHT22;27746;52.228;20.890;2023-10-08T21:58:43;5.40;81.00
42085;DHT22;27746;52.228;20.890;2023-10-08T22:01:12;5.40;81.20
42085;DHT22;27746;52.228;20.890;2023-10-08T22:03:44;5.30;81.20
42085;DHT22;27746;52.228;20.890;2023-10-08T22:06:12;5.30;81.30
42085;DHT22;27746;52.228;20.890;2023-10-08T22:08:39;5.30;81.70
42085;DHT22;27746;52.228;20.890;2023-10-08T22:11:09;5.30;81.80
42085;DHT22;27746;52.228;20.890;2023-10-08T22:13:38;5.20;81.80
42085;DHT22;27746;52.228;20.890;2023-10-08T22:16:06;5.10;82.10
42085;DHT22;27746;52.228;20.890;2023-10-08T22:21:14;5.10;82.50
42085;DHT22;27746;52.228;20.890;2023-10-08T22:23:40;5.10;82.70
42085;DHT22;27746;52.228;20.890;2023-10-08T22:26:08;5.00;83.00
42085;DHT22;27746;52.228;20.890;2023-10-08T22:28:39;5.10;83.00
42085;DHT22;27746;52.228;20.890;2023-10-08T22:33:41;5.00;83.20
42085;DHT22;27746;52.228;20.890;2023-10-08T22:36:15;5.00;83.50
42085;DHT22;27746;52.228;20.890;2023-10-08T22:38:53;5.00;83.80
42085;DHT22;27746;52.228;20.890;2023-10-08T22:41:21;4.90;83.60
42085;DHT22;27746;52.228;20.890;2023-10-08T22:46:28;4.90;84.20
42085;DHT22;27746;52.228;20.890;2023-10-08T22:51:32;4.90;84.10
42085;DHT22;27746;52.228;20.890;2023-10-08T22:54:02;4.90;84.40
42085;DHT22;27746;52.228;20.890;2023-10-08T23:01:26;4.80;85.10
42085;DHT22;27746;52.228;20.890;2023-10-08T23:06:21;4.70;85.20
42085;DHT22;27746;52.228;20.890;2023-10-08T23:08:50;4.70;85.30
42085;DHT22;27746;52.228;20.890;2023-10-08T23:13:46;4.60;85.60
42085;DHT22;27746;52.228;20.890;2023-10-08T23:16:15;4.60;85.70
42085;DHT22;27746;52.228;20.890;2023-10-08T23:18:45;4.60;86.20
42085;DHT22;27746;52.228;20.890;2023-10-08T23:21:17;4.60;86.60
42085;DHT22;27746;52.228;20.890;2023-10-08T23:26:15;4.50;87.00
42085;DHT22;27746;52.228;20.890;2023-10-08T23:31:09;4.50;87.60
42085;DHT22;27746;52.228;20.890;2023-10-08T23:33:38;4.40;87.50
42085;DHT22;27746;52.228;20.890;2023-10-08T23:36:07;4.40;87.80
42085;DHT22;27746;52.228;20.890;2023-10-08T23:41:04;4.40;87.90
42085;DHT22;27746;52.228;20.890;2023-10-08T23:43:43;4.40;87.70
42085;DHT22;27746;52.228;20.890;2023-10-08T23:46:22;4.40;88.10
42085;DHT22;27746;52.228;20.890;2023-10-08T23:48:59;4.40;88.40
42085;DHT22;27746;52.228;20.890;2023-10-08T23:51:34;4.20;88.40
42085;DHT22;27746;52.228;20.890;2023-10-08T23:54:04;4.30;88.50
42085;DHT22;27746;52.228;20.890;2023-10-08T23:56:38;4.40;88.50
42085;DHT22;27746;52.228;20.890;2023-10-08T23:59:12;4.30;88.90
